Metar z połowy godziny Komunikat METAR ze strony awiacja.imgw.pl Metar G00 EPSC METAR EPSC 230830Z 30017KT 9999 SCT020 BKN024 08/03 Q1021 =